Time;durP1;ratioP1;P1;durP2;ratioP2;P2;SDS_P1;SDS_P2;PMS_P1;PMS_P2;Temp;Humidity;BMP_temperature;BMP_pressure;BME280_temperature;BME280_humidity;BME280_pressure;Samples;Min_cycle;Max_cycle;Signal;HPM_P1;HPM_P2
2022/04/25 00:00:29;;;;;;;34.63;17.02;;;;;;;10.99;80.94;99332.94;5076558;28;20416;-74
2022/04/25 00:02:57;;;;;;;31.95;18.10;;;;;;;10.96;80.63;99333.81;5094314;28;20555;-78
2022/04/25 00:05:25;;;;;;;30.42;17.33;;;;;;;10.98;80.75;99331.22;5094762;28;20539;-78
2022/04/25 00:07:52;;;;;;;30.67;17.08;;;;;;;10.95;80.53;99315.53;5094653;28;20562;-77
2022/04/25 00:10:19;;;;;;;29.60;17.02;;;;;;;11.02;80.89;99335.53;5094650;28;20052;-79
2022/04/25 00:12:47;;;;;;;32.22;16.85;;;;;;;11.03;80.32;99324.19;5094281;28;20060;-75
2022/04/25 00:15:14;;;;;;;31.27;17.25;;;;;;;11.03;80.41;99326.81;5094591;28;20550;-78
2022/04/25 00:17:41;;;;;;;30.25;16.42;;;;;;;10.88;80.17;99298.19;5093680;28;20447;-74
2022/04/25 00:20:10;;;;;;;33.05;17.92;;;;;;;11.00;80.33;99319.00;5093782;28;20420;-75
2022/04/25 00:22:37;;;;;;;33.28;17.70;;;;;;;10.93;80.19;99323.41;5094447;28;20052;-76
2022/04/25 00:25:04;;;;;;;29.25;17.00;;;;;;;10.94;80.45;99324.28;5093323;28;20463;-78
2022/04/25 00:27:31;;;;;;;32.40;18.10;;;;;;;10.80;80.79;99298.25;5093588;28;20073;-76
2022/04/25 00:29:58;;;;;;;37.47;18.75;;;;;;;10.85;80.82;99315.59;5093495;28;20176;-76
2022/04/25 00:32:25;;;;;;;30.10;17.60;;;;;;;10.88;80.44;99334.75;5095949;28;20055;-77
2022/04/25 00:34:52;;;;;;;30.52;16.70;;;;;;;10.84;80.78;99319.13;5095828;28;20048;-75
2022/04/25 00:37:19;;;;;;;28.63;16.45;;;;;;;10.81;80.71;99307.81;5094516;28;20098;-76
2022/04/25 00:39:46;;;;;;;31.02;16.92;;;;;;;10.70;80.59;99291.34;5094035;28;20052;-76
2022/04/25 00:42:15;;;;;;;31.38;17.98;;;;;;;10.90;80.48;99327.78;5094541;28;20055;-74
2022/04/25 00:44:43;;;;;;;29.98;17.08;;;;;;;10.84;80.44;99308.66;5094134;28;20068;-76
2022/04/25 00:47:11;;;;;;;29.95;17.75;;;;;;;10.83;80.61;99311.28;5098061;28;20047;-74
2022/04/25 00:49:38;;;;;;;30.15;16.85;;;;;;;10.76;81.16;99297.38;5110484;28;20074;-73
2022/04/25 00:52:05;;;;;;;33.38;17.45;;;;;;;10.91;80.52;99319.94;5109168;28;20059;-74
2022/04/25 00:54:33;;;;;;;29.92;16.15;;;;;;;10.91;81.04;99312.09;5111063;28;20052;-76
2022/04/25 00:57:02;;;;;;;30.80;16.92;;;;;;;10.93;80.72;99317.31;5093333;28;20135;-77
2022/04/25 00:59:29;;;;;;;27.50;16.73;;;;;;;10.90;80.45;99317.31;5093823;28;20056;-76
2022/04/25 01:01:56;;;;;;;26.75;16.60;;;;;;;10.82;80.55;99297.34;5093339;28;20056;-74
2022/04/25 01:04:24;;;;;;;27.60;16.88;;;;;;;10.92;80.82;99302.50;5093657;28;20052;-77
2022/04/25 01:06:52;;;;;;;28.60;16.30;;;;;;;10.94;80.56;99314.69;5093334;28;20048;-75
2022/04/25 01:09:19;;;;;;;24.20;15.57;;;;;;;10.97;80.57;99309.44;5093478;28;20076;-78
2022/04/25 01:11:47;;;;;;;28.45;15.75;;;;;;;11.01;80.65;99316.38;5093318;28;20052;-75
2022/04/25 01:14:20;;;;;;;28.70;16.75;;;;;;;10.90;80.10;99281.59;5092954;28;20463;-76
2022/04/25 01:16:48;;;;;;;25.48;16.15;;;;;;;10.94;80.29;99299.00;5093188;28;20047;-76
2022/04/25 01:19:15;;;;;;;27.45;17.35;;;;;;;11.01;80.36;99316.38;5091539;28;20423;-76
2022/04/25 01:21:54;;;;;;;25.55;16.02;;;;;;;11.02;79.88;99312.03;5091752;28;20501;-74
2022/04/25 01:27:18;;;;;;;28.35;16.02;;;;;;;11.05;80.24;99325.06;5093155;28;20189;-75
2022/04/25 01:29:49;;;;;;;26.33;16.40;;;;;;;11.04;80.35;99321.59;5092901;28;20147;-77
2022/04/25 01:32:18;;;;;;;26.02;16.05;;;;;;;10.91;80.05;99300.78;5093363;28;20097;-76
2022/04/25 01:34:46;;;;;;;24.50;16.27;;;;;;;10.97;80.49;99324.25;5091906;28;20501;-75
2022/04/25 01:37:17;;;;;;;25.83;16.38;;;;;;;10.91;80.61;99316.47;5092581;28;20055;-78
2022/04/25 01:39:52;;;;;;;27.27;15.63;;;;;;;10.93;80.66;99325.16;5092638;28;20074;-76
2022/04/25 01:42:20;;;;;;;27.02;17.10;;;;;;;10.96;80.76;99333.81;5093095;28;20052;-75
2022/04/25 01:44:47;;;;;;;26.42;16.63;;;;;;;10.91;80.50;99319.09;5092908;28;20054;-79
2022/04/25 01:47:15;;;;;;;27.45;17.55;;;;;;;10.90;80.32;99325.16;5092947;28;20059;-77
2022/04/25 01:49:42;;;;;;;26.23;16.67;;;;;;;10.86;80.88;99327.81;5101113;28;20051;-74
2022/04/25 01:52:30;;;;;;;27.60;17.15;;;;;;;10.79;80.75;99326.09;5105176;28;20062;-73
2022/04/25 01:55:01;;;;;;;28.15;17.38;;;;;;;10.76;80.72;99314.81;5104452;28;20048;-74
2022/04/25 01:57:29;;;;;;;27.05;17.45;;;;;;;10.72;80.69;99308.72;5095043;28;20447;-77
2022/04/25 01:59:57;;;;;;;28.10;18.15;;;;;;;10.72;81.25;99289.59;5092621;28;20052;-76
2022/04/25 02:02:23;;;;;;;31.73;18.23;;;;;;;10.80;80.75;99309.56;5092766;28;20044;-76
2022/04/25 02:04:52;;;;;;;26.60;17.08;;;;;;;10.83;80.64;99314.75;5092314;28;20488;-77
2022/04/25 02:07:21;;;;;;;31.05;18.17;;;;;;;10.82;80.82;99320.88;5092801;28;20055;-75
2022/04/25 02:09:49;;;;;;;26.65;17.40;;;;;;;10.83;80.90;99322.59;5092282;28;20048;-75
2022/04/25 02:12:16;;;;;;;31.85;18.67;;;;;;;10.81;81.11;99320.88;5092897;28;20504;-75
2022/04/25 02:14:45;;;;;;;28.20;18.38;;;;;;;10.70;81.15;99305.25;5091053;28;20143;-78
2022/04/25 02:17:14;;;;;;;30.42;19.35;;;;;;;10.78;80.86;99318.28;5092529;28;20059;-78
2022/04/25 02:19:43;;;;;;;28.77;18.10;;;;;;;10.86;81.22;99327.81;5094053;28;20071;-78
2022/04/25 02:22:12;;;;;;;30.42;18.00;;;;;;;10.91;80.77;99327.78;5099207;28;20064;-75
2022/04/25 02:24:41;;;;;;;28.70;18.33;;;;;;;10.87;80.63;99318.22;5096487;28;20048;-76
2022/04/25 02:27:09;;;;;;;;;;;;;;;10.70;80.62;99320.94;5093467;28;20135;-75
2022/04/25 02:29:41;;;;;;;32.42;18.98;;;;;;;10.74;80.82;99320.03;5092781;28;20380;-77
2022/04/25 02:32:12;;;;;;;31.23;18.40;;;;;;;10.76;81.22;99312.19;5092412;28;20504;-78
2022/04/25 02:34:42;;;;;;;32.63;18.45;;;;;;;10.89;80.71;99331.28;5092240;28;20055;-75
2022/04/25 02:37:10;;;;;;;35.15;20.42;;;;;;;10.88;80.99;99322.56;5091161;28;20101;-79
2022/04/25 02:39:37;;;;;;;31.48;18.95;;;;;;;10.92;80.54;99329.50;5092314;28;20059;-77
2022/04/25 02:42:04;;;;;;;31.38;19.00;;;;;;;10.96;80.54;99335.59;5078514;28;20052;-76
2022/04/25 02:44:32;;;;;;;31.90;20.08;;;;;;;10.70;80.79;99283.50;5072014;28;20065;-76
2022/04/25 02:47:02;;;;;;;30.58;19.83;;;;;;;10.96;80.81;99343.41;5072239;28;20102;-73
2022/04/25 02:49:29;;;;;;;33.40;19.63;;;;;;;10.97;80.81;99350.38;5075622;28;20049;-73
2022/04/25 02:51:56;;;;;;;36.35;19.17;;;;;;;11.03;80.44;99334.66;5077007;28;20045;-76
2022/04/25 02:54:23;;;;;;;30.83;19.45;;;;;;;11.05;80.35;99333.75;5074652;28;20106;-77
2022/04/25 02:56:50;;;;;;;31.20;18.40;;;;;;;11.12;79.98;99339.84;5075397;28;20056;-77
2022/04/25 02:59:17;;;;;;;30.77;19.98;;;;;;;10.98;80.31;99310.31;5075654;28;20052;-77
2022/04/25 03:01:44;;;;;;;30.17;19.00;;;;;;;11.15;80.21;99344.16;5082977;28;20496;-76
2022/04/25 03:04:11;;;;;;;34.97;20.42;;;;;;;11.15;79.91;99342.41;5095845;28;20062;-75
2022/04/25 03:06:38;;;;;;;32.47;20.20;;;;;;;11.18;79.82;99349.38;5095585;28;20086;-75
2022/04/25 03:09:05;;;;;;;32.40;19.15;;;;;;;11.14;79.98;99331.97;5095693;28;20056;-74
2022/04/25 03:11:34;;;;;;;35.80;20.45;;;;;;;11.30;79.84;99344.06;5095641;28;20089;-78
2022/04/25 03:14:02;;;;;;;31.73;19.90;;;;;;;11.35;79.10;99342.25;5095822;28;20429;-76
2022/04/25 03:16:29;;;;;;;31.83;19.65;;;;;;;11.34;79.27;99334.44;5095371;28;20051;-76
2022/04/25 03:18:58;;;;;;;34.58;20.90;;;;;;;11.29;79.00;99318.75;5094482;28;20079;-77
2022/04/25 03:21:26;;;;;;;30.30;19.40;;;;;;;11.52;78.86;99359.56;5095468;28;20138;-76
2022/04/25 03:23:53;;;;;;;30.35;19.50;;;;;;;11.52;78.50;99354.34;5095179;28;20082;-75
2022/04/25 03:26:21;;;;;;;29.00;17.70;;;;;;;11.54;78.30;99348.19;5094031;28;20056;-76
2022/04/25 03:28:47;;;;;;;28.77;18.17;;;;;;;11.57;78.32;99355.16;5094888;28;20637;-76
2022/04/25 03:31:14;;;;;;;31.10;18.98;;;;;;;11.55;78.48;99336.88;5095268;28;20052;-77
2022/04/25 03:33:41;;;;;;;29.20;18.20;;;;;;;11.66;77.76;99332.41;5094875;28;20078;-77
2022/04/25 03:36:08;;;;;;;25.88;16.88;;;;;;;11.77;77.45;99349.75;5095161;28;20044;-78
2022/04/25 03:38:35;;;;;;;26.70;16.02;;;;;;;11.79;76.97;99340.16;5092332;28;20048;-74
2022/04/25 03:41:02;;;;;;;25.17;15.75;;;;;;;11.79;76.86;99324.44;5091263;28;20060;-77
2022/04/25 03:43:31;;;;;;;23.30;14.95;;;;;;;11.95;76.43;99333.88;5095408;28;20052;-76
2022/04/25 03:46:00;;;;;;;23.10;14.63;;;;;;;12.15;75.25;99331.03;5095502;28;20079;-77
2022/04/25 03:48:27;;;;;;;21.45;14.18;;;;;;;12.38;74.51;99332.53;5095343;28;20071;-76
2022/04/25 03:50:55;;;;;;;22.05;13.93;;;;;;;12.62;73.85;99328.72;5094921;28;20124;-77
2022/04/25 03:53:21;;;;;;;21.27;13.63;;;;;;;13.04;72.45;99334.25;5093886;28;20060;-76
2022/04/25 03:58:35;;;;;;;22.00;14.20;;;;;;;13.05;71.96;99330.72;5095049;28;20078;-75
2022/04/25 04:01:02;;;;;;;21.20;13.77;;;;;;;13.20;71.66;99332.25;5094790;28;20079;-76
2022/04/25 04:03:30;;;;;;;23.02;14.25;;;;;;;13.25;71.50;99344.41;5094824;28;20048;-77
2022/04/25 04:05:57;;;;;;;22.77;14.73;;;;;;;13.22;71.31;99326.09;5094710;28;20052;-78
2022/04/25 04:08:24;;;;;;;23.55;14.80;;;;;;;13.48;70.65;99336.19;5094798;28;20052;-77
2022/04/25 04:10:51;;;;;;;23.73;15.05;;;;;;;13.45;70.97;99341.50;5093248;28;20117;-76
2022/04/25 04:13:19;;;;;;;21.85;14.82;;;;;;;13.39;70.10;99314.50;5080011;28;20052;-77
2022/04/25 04:15:46;;;;;;;21.08;14.63;;;;;;;13.50;70.13;99344.03;5083676;28;20083;-76
2022/04/25 04:18:13;;;;;;;23.15;15.45;;;;;;;13.76;69.80;99335.72;5087949;28;20055;-76
2022/04/25 04:20:41;;;;;;;24.67;14.88;;;;;;;13.90;69.07;99338.97;5093952;28;20098;-75
2022/04/25 04:23:07;;;;;;;23.20;14.63;;;;;;;14.39;67.88;99336.25;5094338;28;20076;-77
2022/04/25 04:25:35;;;;;;;23.65;14.30;;;;;;;14.83;66.34;99316.94;5090488;28;20040;-76
2022/04/25 04:28:06;;;;;;;21.13;13.23;;;;;;;15.41;65.05;99329.63;5094236;28;20067;-75
2022/04/25 04:30:33;;;;;;;;;;;;;;;15.74;65.72;99320.91;5094982;28;20569;-77
2022/04/25 04:33:00;;;;;;;17.90;11.68;;;;;;;15.91;62.95;99315.16;5094030;28;19977;-78
2022/04/25 04:38:16;;;;;;;13.23;9.43;;;;;;;15.33;62.25;99285.06;5093904;28;20067;-76
2022/04/25 04:40:44;;;;;;;11.65;8.00;;;;;;;15.15;62.25;99304.81;5085952;28;20502;-74
2022/04/25 04:43:11;;;;;;;13.20;8.35;;;;;;;14.86;62.77;99285.34;5088520;28;20535;-74
2022/04/25 04:45:39;;;;;;;10.73;7.75;;;;;;;15.02;62.75;99306.88;5102057;28;20051;-73
2022/04/25 04:48:08;;;;;;;14.05;8.30;;;;;;;15.21;62.19;99303.78;5097137;28;20146;-75
2022/04/25 04:50:35;;;;;;;13.75;8.02;;;;;;;15.39;61.56;99294.59;5097966;28;20054;-74
2022/04/25 04:53:03;;;;;;;12.80;8.85;;;;;;;15.48;61.52;99297.81;5078589;28;20433;-76
2022/04/25 04:55:33;;;;;;;12.80;8.43;;;;;;;15.77;60.58;99315.53;5081507;28;20040;-76
2022/04/25 04:58:02;;;;;;;13.00;7.97;;;;;;;16.11;59.42;99301.47;5083097;28;20421;-76
2022/04/25 05:00:30;;;;;;;11.43;7.85;;;;;;;16.45;58.25;99302.25;5082171;28;20052;-79
2022/04/25 05:02:59;;;;;;;9.45;7.20;;;;;;;16.78;57.50;99303.88;5065874;28;20079;-76
2022/04/25 05:05:27;;;;;;;11.25;7.45;;;;;;;17.22;55.90;99303.41;5046707;28;20044;-75
2022/04/25 05:07:56;;;;;;;10.77;7.82;;;;;;;17.59;55.26;99305.69;5082297;28;20060;-77
2022/04/25 05:10:25;;;;;;;10.02;7.78;;;;;;;17.97;54.64;99282.34;5084644;28;20048;-75
2022/04/25 05:12:54;;;;;;;9.93;7.18;;;;;;;17.63;54.07;99290.59;5081453;28;20055;-75
2022/04/25 05:15:23;;;;;;;11.52;7.78;;;;;;;17.22;54.94;99271.72;5083572;28;20048;-76
2022/04/25 05:17:55;;;;;;;10.95;7.40;;;;;;;17.20;54.84;99289.38;5081805;28;20135;-76
2022/04/25 05:20:24;;;;;;;11.82;7.47;;;;;;;17.02;55.01;99305.84;5080206;28;20058;-75
2022/04/25 05:22:52;;;;;;;9.57;6.55;;;;;;;16.85;54.97;99296.66;5083253;28;20045;-76
2022/04/25 05:25:25;;;;;;;11.50;7.40;;;;;;;16.74;54.92;99299.59;5093056;28;20409;-75
2022/04/25 05:27:55;;;;;;;8.90;6.82;;;;;;;16.53;55.47;99316.91;5092880;28;20146;-76
2022/04/25 05:30:25;;;;;;;12.63;7.90;;;;;;;16.57;55.52;99312.44;5092841;28;20044;-76
2022/04/25 05:32:55;;;;;;;11.25;7.25;;;;;;;16.80;55.17;99314.41;5092830;28;20097;-75
2022/04/25 05:35:25;;;;;;;;;;;;;;;16.63;56.54;99309.63;5093550;28;20544;-77
2022/04/25 05:37:54;;;;;;;8.25;5.90;;;;;;;16.54;54.75;99305.47;5093071;28;19938;-78
2022/04/25 05:40:22;;;;;;;10.15;6.22;;;;;;;16.26;55.49;99312.44;5090524;28;20125;-75
2022/04/25 05:42:51;;;;;;;8.23;5.88;;;;;;;16.12;55.70;99310.22;5083339;28;20054;-76
2022/04/25 05:45:22;;;;;;;9.30;6.28;;;;;;;15.98;56.18;99305.31;5082935;28;20094;-77
2022/04/25 05:47:55;;;;;;;10.10;6.55;;;;;;;16.03;56.08;99324.50;5077276;28;20147;-78
2022/04/25 05:53:13;;;;;;;8.27;6.72;;;;;;;16.11;55.30;99324.28;5080868;28;20517;-76
2022/04/25 05:55:42;;;;;;;11.43;7.07;;;;;;;16.24;55.96;99333.59;5085440;28;20044;-77
2022/04/25 05:58:11;;;;;;;9.30;6.60;;;;;;;16.66;54.57;99320.06;5084805;28;20400;-76
2022/04/25 06:00:38;;;;;;;9.73;6.28;;;;;;;16.90;53.69;99328.16;5086981;28;20052;-76
2022/04/25 06:03:08;;;;;;;9.38;6.53;;;;;;;16.94;53.21;99335.94;5090501;28;20444;-78
2022/04/25 06:05:35;;;;;;;7.13;5.65;;;;;;;17.32;52.44;99331.22;5081958;28;20067;-76
2022/04/25 06:08:02;;;;;;;10.57;6.43;;;;;;;17.51;51.44;99335.88;5082643;28;20523;-77
2022/04/25 06:10:30;;;;;;;6.95;5.95;;;;;;;17.43;51.75;99336.16;5083587;28;20044;-79
2022/04/25 06:12:57;;;;;;;9.00;6.18;;;;;;;17.32;51.64;99318.03;5081911;28;20056;-77
2022/04/25 06:15:25;;;;;;;8.85;6.00;;;;;;;17.53;51.85;99350.78;5080457;28;20079;-77
2022/04/25 06:17:55;;;;;;;7.40;5.38;;;;;;;17.74;50.84;99340.41;5081001;28;20053;-77
2022/04/25 06:20:22;;;;;;;8.05;5.65;;;;;;;17.53;50.48;99331.41;5081948;28;20493;-80
2022/04/25 06:22:52;;;;;;;8.20;5.85;;;;;;;17.48;50.65;99346.56;5079497;28;20044;-76
2022/04/25 06:25:20;;;;;;;8.57;6.07;;;;;;;17.50;50.49;99348.22;5082445;28;20059;-77
2022/04/25 06:27:47;;;;;;;10.88;5.32;;;;;;;17.34;50.86;99349.66;5090549;28;20052;-77
2022/04/25 06:30:14;;;;;;;7.95;5.63;;;;;;;17.10;51.18;99359.19;5091204;28;20412;-77
2022/04/25 06:32:44;;;;;;;9.27;6.32;;;;;;;17.12;51.16;99360.91;5087635;28;20063;-76
2022/04/25 06:35:12;;;;;;;8.85;5.75;;;;;;;17.05;51.56;99350.56;5086849;28;20052;-75
2022/04/25 06:37:40;;;;;;;9.35;6.18;;;;;;;16.89;51.60;99358.09;5084641;28;20417;-76
2022/04/25 06:40:10;;;;;;;8.32;6.22;;;;;;;16.84;51.46;99358.22;5083441;28;20505;-78
2022/04/25 06:42:36;;;;;;;8.05;5.65;;;;;;;16.93;50.97;99359.75;5086454;28;20469;-81
2022/04/25 06:45:05;;;;;;;7.25;6.10;;;;;;;17.01;50.73;99327.84;5086900;28;20436;-77
2022/04/25 06:47:32;;;;;;;8.10;5.78;;;;;;;17.29;50.19;99338.38;5093093;28;20051;-76
2022/04/25 06:49:58;;;;;;;9.35;5.85;;;;;;;17.54;49.84;99334.00;5099105;28;20060;-77
2022/04/25 06:52:26;;;;;;;10.50;5.93;;;;;;;17.72;49.08;99336.94;5099310;28;20140;-76
2022/04/25 06:54:54;;;;;;;9.20;6.05;;;;;;;17.80;48.71;99311.97;5092024;28;20147;-78
2022/04/25 06:57:22;;;;;;;9.45;5.43;;;;;;;18.11;48.16;99331.19;5083965;28;20064;-77
2022/04/25 06:59:49;;;;;;;10.27;5.53;;;;;;;18.61;47.16;99332.00;5090749;28;20497;-79
2022/04/25 07:02:16;;;;;;;8.70;5.65;;;;;;;18.67;46.62;99327.38;5085121;28;20465;-78
2022/04/25 07:04:43;;;;;;;9.55;5.80;;;;;;;18.80;46.63;99313.66;5086885;28;20052;-79
2022/04/25 07:07:11;;;;;;;9.15;5.85;;;;;;;19.10;46.63;99318.69;5085701;28;20049;-80
2022/04/25 07:09:38;;;;;;;7.65;5.30;;;;;;;19.07;45.73;99310.84;5085579;28;20080;-81
2022/04/25 07:12:09;;;;;;;8.30;5.43;;;;;;;19.15;45.39;99306.09;5084972;28;20054;-83
2022/04/25 07:14:36;;;;;;;6.95;5.13;;;;;;;19.12;45.21;99298.31;5082497;28;20067;-79
2022/04/25 07:17:03;;;;;;;8.07;5.60;;;;;;;18.81;46.20;99311.88;5087540;28;20496;-83
2022/04/25 07:19:31;;;;;;;8.20;5.63;;;;;;;18.66;45.84;99299.22;5066157;28;20060;-79
2022/04/25 07:30:20;;;;;;;11.02;5.80;;;;;;;17.79;47.75;99285.66;5085605;28;20052;-78
2022/04/25 07:32:47;;;;;;;8.80;5.60;;;;;;;17.76;47.97;99296.31;5073747;28;20040;-78
2022/04/25 07:35:16;;;;;;;10.48;5.40;;;;;;;17.71;47.83;99298.25;5075366;28;20048;-77
2022/04/25 07:37:47;;;;;;;;;;;;;;;17.44;49.20;99297.41;5075437;28;20059;-79
2022/04/25 07:40:15;;;;;;;9.98;6.00;;;;;;;17.67;48.34;99310.69;5084884;28;19924;-79
2022/04/25 07:42:56;;;;;;;9.82;6.75;;;;;;;17.78;48.50;99310.31;5082021;28;20052;-79
2022/04/25 07:45:25;;;;;;;10.65;5.85;;;;;;;17.62;47.72;99302.06;5080960;28;20095;-78
2022/04/25 07:47:53;;;;;;;6.68;5.22;;;;;;;17.26;48.53;99286.56;5083065;28;20051;-75
2022/04/25 07:50:23;;;;;;;7.28;5.60;;;;;;;17.31;49.00;99296.94;5082540;28;20050;-78
2022/04/25 07:52:51;;;;;;;9.48;6.13;;;;;;;17.32;48.55;99272.28;5083019;28;20036;-78
2022/04/25 07:55:19;;;;;;;6.40;5.60;;;;;;;17.32;48.55;99261.75;5084016;28;20520;-78
2022/04/25 07:57:49;;;;;;;6.90;5.45;;;;;;;17.24;47.93;99264.63;5084693;28;20098;-79
2022/04/25 08:00:17;;;;;;;7.20;5.50;;;;;;;17.16;47.50;99286.00;5082265;28;20158;-77
2022/04/25 08:02:44;;;;;;;7.72;5.40;;;;;;;17.19;48.23;99283.25;5084808;28;20056;-79
2022/04/25 08:05:13;;;;;;;6.60;5.15;;;;;;;17.39;47.82;99281.72;5083022;28;20059;-78
2022/04/25 08:07:42;;;;;;;6.22;4.93;;;;;;;17.28;47.44;99271.53;5083104;28;20075;-80
2022/04/25 08:10:08;;;;;;;7.63;5.90;;;;;;;17.29;47.83;99273.25;5082755;28;20052;-80
2022/04/25 08:18:14;;;;;;;6.75;5.20;;;;;;;17.60;45.92;99275.72;5073600;28;20059;-76
2022/04/25 08:20:43;;;;;;;7.22;5.28;;;;;;;17.79;45.69;99275.94;5073793;28;20057;-77
2022/04/25 08:23:12;;;;;;;9.77;5.15;;;;;;;17.85;44.97;99264.31;5081216;28;20547;-79
2022/04/25 08:25:42;;;;;;;7.33;5.13;;;;;;;17.58;45.23;99260.84;5083465;28;20063;-78
2022/04/25 08:28:12;;;;;;;6.47;5.22;;;;;;;17.43;45.54;99264.00;5084269;28;20059;-80
2022/04/25 08:30:38;;;;;;;6.82;4.63;;;;;;;17.46;46.24;99274.47;5083194;28;20056;-78
2022/04/25 08:33:08;;;;;;;6.07;4.97;;;;;;;17.69;46.06;99284.22;5082731;28;20128;-79
2022/04/25 08:35:36;;;;;;;9.67;4.90;;;;;;;17.67;44.95;99257.00;5083819;28;20524;-77
2022/04/25 08:38:05;;;;;;;6.05;4.75;;;;;;;17.83;44.24;99279.34;5084632;28;20044;-77
2022/04/25 08:40:34;;;;;;;6.10;4.47;;;;;;;17.94;44.32;99265.75;5084113;28;20097;-79
2022/04/25 08:43:04;;;;;;;8.13;4.47;;;;;;;18.19;43.83;99265.72;5084215;28;20112;-75
2022/04/25 08:45:33;;;;;;;7.50;4.63;;;;;;;18.31;42.65;99256.47;5100590;28;20035;-73
2022/04/25 08:48:03;;;;;;;4.97;3.92;;;;;;;18.32;42.24;99261.69;5098041;28;20052;-76
2022/04/25 08:50:32;;;;;;;5.82;3.95;;;;;;;18.34;42.46;99264.28;5096833;28;20116;-75
2022/04/25 08:52:59;;;;;;;5.93;4.30;;;;;;;18.35;41.78;99271.31;5083498;28;20544;-76
2022/04/25 08:55:28;;;;;;;7.03;4.55;;;;;;;18.33;41.90;99242.28;5084707;28;20048;-77
2022/04/25 08:57:59;;;;;;;7.20;4.50;;;;;;;18.31;42.18;99222.13;5089501;28;20048;-77
2022/04/25 09:00:28;;;;;;;5.47;4.70;;;;;;;18.46;41.93;99224.16;5092438;28;20056;-77
2022/04/25 09:02:57;;;;;;;6.50;4.43;;;;;;;18.47;41.73;99246.16;5093689;28;20097;-76
2022/04/25 09:05:27;;;;;;;4.45;4.03;;;;;;;18.39;41.10;99260.56;5093460;28;20512;-76
2022/04/25 09:07:58;;;;;;;6.45;4.47;;;;;;;18.42;40.72;99243.72;5081269;28;20056;-77
2022/04/25 09:10:27;;;;;;;7.45;4.15;;;;;;;18.69;40.29;99244.41;5073907;28;20493;-76
2022/04/25 09:12:54;;;;;;;5.60;4.07;;;;;;;18.97;39.54;99238.91;5059836;28;20063;-78
2022/04/25 09:15:23;;;;;;;5.40;4.25;;;;;;;19.11;39.34;99240.13;5082706;28;20415;-76
2022/04/25 09:17:55;;;;;;;6.00;4.30;;;;;;;19.11;39.36;99238.31;5076020;28;20160;-76
2022/04/25 09:20:26;;;;;;;4.90;4.40;;;;;;;18.93;39.94;99236.41;5075184;28;20064;-77
2022/04/25 09:22:56;;;;;;;5.88;4.20;;;;;;;18.96;40.10;99231.88;5073603;28;20056;-77
2022/04/25 09:25:26;;;;;;;7.68;4.20;;;;;;;19.03;39.63;99219.25;5073634;28;20481;-75
2022/04/25 09:28:15;;;;;;;5.65;4.20;;;;;;;19.07;39.79;99217.34;5079881;28;20106;-77
2022/04/25 09:31:02;;;;;;;4.97;4.22;;;;;;;18.74;39.89;99215.13;5073097;28;20121;-78
2022/04/25 09:33:32;;;;;;;5.93;4.47;;;;;;;18.24;40.53;99205.63;5072697;28;20049;-76
2022/04/25 09:36:00;;;;;;;4.93;4.18;;;;;;;18.15;40.64;99204.16;5083496;28;20055;-76
2022/04/25 09:38:31;;;;;;;6.07;4.40;;;;;;;18.20;40.18;99220.72;5092132;28;20435;-77
2022/04/25 09:41:00;;;;;;;5.53;4.80;;;;;;;18.36;40.15;99225.44;5090276;28;20079;-77
2022/04/25 09:43:32;;;;;;;9.38;4.43;;;;;;;18.39;39.83;99225.28;5080828;28;20130;-77
2022/04/25 09:46:09;;;;;;;6.60;4.53;;;;;;;18.45;39.96;99221.56;5092733;28;20475;-76
2022/04/25 09:48:41;;;;;;;5.82;4.60;;;;;;;18.50;39.73;99212.53;5092780;28;20169;-75
2022/04/25 09:51:16;;;;;;;5.50;4.55;;;;;;;18.68;39.37;99183.63;5092674;28;20044;-76
2022/04/25 09:53:54;;;;;;;10.75;5.00;;;;;;;18.77;39.52;99193.84;5093156;28;20482;-77
2022/04/25 09:56:24;;;;;;;7.32;4.78;;;;;;;18.81;38.88;99201.59;5092775;28;20055;-77
2022/04/25 09:59:07;;;;;;;5.65;4.13;;;;;;;18.94;38.70;99201.13;5092794;28;20134;-78
2022/04/25 10:01:39;;;;;;;6.95;4.40;;;;;;;18.97;38.38;99196.56;5087083;28;20080;-76
2022/04/25 10:04:31;;;;;;;6.38;4.68;;;;;;;19.03;38.72;99195.44;5080565;28;20052;-77
2022/04/25 10:07:06;;;;;;;5.22;4.28;;;;;;;18.70;39.44;99203.81;5083983;28;20456;-76
2022/04/25 10:09:35;;;;;;;12.30;4.60;;;;;;;18.75;39.19;99193.03;5083588;28;20067;-76
2022/04/25 10:12:05;;;;;;;6.60;4.10;;;;;;;18.96;38.71;99202.75;5092395;28;20056;-77
2022/04/25 10:14:33;;;;;;;5.35;4.63;;;;;;;19.09;38.30;99210.19;5092223;28;20048;-78
2022/04/25 10:17:01;;;;;;;5.85;4.60;;;;;;;19.33;38.27;99195.91;5091751;28;20056;-77
2022/04/25 10:19:30;;;;;;;5.13;4.22;;;;;;;19.67;37.46;99202.38;5091525;28;20056;-76
2022/04/25 10:21:59;;;;;;;6.47;4.32;;;;;;;19.73;37.18;99183.59;5091631;28;20048;-77
2022/04/25 10:24:27;;;;;;;5.47;4.07;;;;;;;19.86;36.87;99193.66;5092376;28;20064;-77
2022/04/25 10:26:57;;;;;;;7.43;5.00;;;;;;;20.01;37.19;99179.69;5092070;28;20056;-77
2022/04/25 10:29:34;;;;;;;6.57;4.63;;;;;;;19.99;37.31;99193.00;5092435;28;20469;-77
2022/04/25 10:32:07;;;;;;;6.97;4.57;;;;;;;19.73;37.54;99183.59;5093037;28;20087;-78
2022/04/25 10:34:51;;;;;;;5.85;4.15;;;;;;;19.20;37.95;99182.34;5092621;28;20116;-76
2022/04/25 10:37:29;;;;;;;5.22;4.32;;;;;;;19.05;37.76;99188.28;5090879;28;20048;-77
2022/04/25 10:40:00;;;;;;;4.60;4.13;;;;;;;19.19;37.11;99195.66;5091502;28;20052;-76
2022/04/25 10:45:17;;;;;;;4.72;4.20;;;;;;;19.61;36.46;99162.91;5089930;28;20055;-77
2022/04/25 10:47:57;;;;;;;5.45;4.38;;;;;;;19.73;36.33;99175.66;5072163;28;20060;-77
2022/04/25 10:50:25;;;;;;;;;;;;;;;19.67;37.77;99181.19;5071509;28;20052;-76
2022/04/25 10:52:54;;;;;;;10.00;4.35;;;;;;;19.87;36.43;99182.97;5072011;28;19924;-77
2022/04/25 10:55:33;;;;;;;7.95;4.18;;;;;;;19.60;35.78;99180.63;5071921;28;20057;-76
2022/04/25 10:58:02;;;;;;;7.18;4.20;;;;;;;19.63;35.89;99176.97;5071955;28;20501;-77
2022/04/25 11:00:36;;;;;;;6.18;4.20;;;;;;;19.70;36.01;99177.56;5072001;28;20132;-77
2022/04/25 11:03:14;;;;;;;8.27;4.40;;;;;;;19.60;36.32;99193.00;5072053;28;20216;-78
2022/04/25 11:05:49;;;;;;;13.57;4.47;;;;;;;19.78;36.20;99173.66;5072011;28;20139;-76
2022/04/25 11:08:18;;;;;;;4.82;4.28;;;;;;;19.95;35.96;99178.19;5071828;28;20055;-77
2022/04/25 11:10:48;;;;;;;6.82;4.72;;;;;;;20.05;35.47;99162.72;5070839;28;20206;-77
2022/04/25 11:13:26;;;;;;;4.63;4.22;;;;;;;19.91;34.88;99150.09;5074636;28;20060;-78
2022/04/25 11:16:28;;;;;;;7.40;4.40;;;;;;;20.05;35.13;99149.47;5075371;28;20065;-77
2022/04/25 11:19:22;;;;;;;5.07;3.55;;;;;;;20.20;34.65;99139.94;5029181;28;20056;-77
2022/04/25 11:21:55;;;;;;;8.07;3.65;;;;;;;19.77;34.96;99152.53;5074255;28;20533;-76
2022/04/25 11:24:45;;;;;;;4.97;3.60;;;;;;;19.51;35.72;99158.94;5073736;28;20048;-76
2022/04/25 11:27:14;;;;;;;4.50;3.78;;;;;;;19.30;35.96;99164.28;5075253;28;20493;-76
2022/04/25 11:29:47;;;;;;;5.45;3.47;;;;;;;19.16;36.37;99156.06;5077465;28;20520;-76
2022/04/25 11:32:40;;;;;;;4.10;3.70;;;;;;;19.34;36.38;99151.78;5093716;28;20429;-77
2022/04/25 11:35:10;;;;;;;4.65;3.70;;;;;;;19.37;36.33;99147.19;5095548;28;20090;-75
2022/04/25 11:37:39;;;;;;;7.35;3.45;;;;;;;19.44;35.81;99127.47;5096176;28;20056;-78
2022/04/25 11:40:08;;;;;;;4.85;3.90;;;;;;;19.47;36.13;99152.97;5078807;28;20505;-77
2022/04/25 11:42:37;;;;;;;4.25;3.70;;;;;;;19.48;35.50;99144.06;5075712;28;20059;-78
2022/04/25 11:45:07;;;;;;;6.00;3.42;;;;;;;19.57;35.58;99129.53;5074675;28;20059;-78
2022/04/25 11:47:36;;;;;;;7.40;3.95;;;;;;;19.40;36.04;99157.66;5074886;28;20060;-80
2022/04/25 11:50:06;;;;;;;9.18;4.13;;;;;;;19.02;36.69;99157.53;5086363;28;20052;-78
2022/04/25 11:52:35;;;;;;;5.75;3.97;;;;;;;18.93;37.20;99165.84;5087090;28;20052;-78
2022/04/25 11:55:03;;;;;;;4.50;3.75;;;;;;;18.88;37.26;99162.53;5086841;28;20055;-78
2022/04/25 11:57:39;;;;;;;4.63;4.07;;;;;;;18.86;36.99;99153.78;5075905;28;20052;-79
2022/04/25 12:00:09;;;;;;;4.72;3.63;;;;;;;18.61;37.15;99127.47;5076163;28;20059;-76
2022/04/25 12:02:40;;;;;;;4.65;3.85;;;;;;;18.52;37.38;99125.19;5079434;28;20110;-80
2022/04/25 12:05:09;;;;;;;4.40;3.65;;;;;;;18.82;37.37;99142.50;5075201;28;20056;-78